createdAt,value
2019-05-22T00:01:57.671Z,53.50
2019-05-22T00:04:32.131Z,53.50
2019-05-22T00:07:02.167Z,53.80
2019-05-22T00:09:35.386Z,53.80
2019-05-22T00:12:09.226Z,54.00
2019-05-22T00:14:40.604Z,54.00
2019-05-22T00:17:11.874Z,54.20
2019-05-22T00:19:42.331Z,54.20
2019-05-22T00:22:13.576Z,54.80
2019-05-22T00:24:46.292Z,54.40
2019-05-22T00:27:18.015Z,54.50
2019-05-22T00:29:50.183Z,54.90
2019-05-22T00:32:21.127Z,55.20
2019-05-22T00:34:52.009Z,55.40
2019-05-22T00:37:21.870Z,55.50
2019-05-22T00:39:51.748Z,55.60
2019-05-22T00:42:23.528Z,55.70
2019-05-22T00:44:54.357Z,55.80
2019-05-22T00:47:24.934Z,55.90
2019-05-22T00:49:58.220Z,56.30
2019-05-22T00:52:44.388Z,56.20
2019-05-22T00:55:24.945Z,56.40
2019-05-22T00:57:56.739Z,56.80
2019-05-22T01:00:28.059Z,57.00
2019-05-22T01:02:59.369Z,57.10
2019-05-22T01:05:29.537Z,57.30
2019-05-22T01:08:00.860Z,57.20
2019-05-22T01:10:30.498Z,57.30
2019-05-22T01:13:00.881Z,57.50
2019-05-22T01:15:32.812Z,57.50
2019-05-22T01:18:07.242Z,57.60
2019-05-22T01:20:38.003Z,57.80
2019-05-22T01:23:09.275Z,57.90
2019-05-22T01:25:39.128Z,57.90
2019-05-22T01:28:10.720Z,58.00
2019-05-22T01:30:42.325Z,58.30
2019-05-22T01:33:20.518Z,58.40
2019-05-22T01:35:53.320Z,58.40
2019-05-22T01:38:23.438Z,58.40
2019-05-22T01:40:55.885Z,58.50
2019-05-22T01:43:26.240Z,58.60
2019-05-22T01:45:55.878Z,58.90
2019-05-22T01:48:36.845Z,58.90
2019-05-22T01:51:11.253Z,58.90
2019-05-22T01:53:44.282Z,58.90
2019-05-22T01:56:15.745Z,59.90
2019-05-22T01:58:45.491Z,59.10
2019-05-22T02:01:23.804Z,59.40
2019-05-22T02:03:55.652Z,59.40
2019-05-22T02:06:26.413Z,60.10
2019-05-22T02:09:21.649Z,59.40
2019-05-22T02:11:57.786Z,59.40
2019-05-22T02:14:27.843Z,59.50
2019-05-22T02:16:58.750Z,59.40
2019-05-22T02:19:28.528Z,59.50
2019-05-22T02:21:59.736Z,59.50
2019-05-22T02:24:30.020Z,59.40
2019-05-22T02:27:01.959Z,59.40
2019-05-22T02:29:32.849Z,59.40
2019-05-22T02:32:04.047Z,59.40
2019-05-22T02:34:33.882Z,59.50
2019-05-22T02:37:05.336Z,59.40
2019-05-22T02:39:35.994Z,59.50
2019-05-22T02:42:09.566Z,59.50
2019-05-22T02:44:39.224Z,59.50
2019-05-22T02:47:18.927Z,59.50
2019-05-22T02:49:43.226Z,59.40
2019-05-22T02:52:15.281Z,59.50
2019-05-22T02:54:45.387Z,59.40
2019-05-22T02:57:15.444Z,59.40
2019-05-22T02:59:45.781Z,59.40
2019-05-22T03:02:16.207Z,59.50
2019-05-22T03:05:01.775Z,59.50
2019-05-22T03:07:32.941Z,59.80
2019-05-22T03:10:03.505Z,59.50
2019-05-22T03:12:34.867Z,59.70
2019-05-22T03:15:07.583Z,59.40
2019-05-22T03:17:38.877Z,59.50
2019-05-22T03:20:13.016Z,59.60
2019-05-22T03:23:01.237Z,60.10
2019-05-22T03:25:33.264Z,60.00
2019-05-22T03:28:05.085Z,60.10
2019-05-22T03:30:38.281Z,60.50
2019-05-22T03:33:08.407Z,60.60
2019-05-22T03:35:45.985Z,60.60
2019-05-22T03:38:17.731Z,60.70
2019-05-22T03:40:50.566Z,61.10
2019-05-22T03:43:22.598Z,61.20
2019-05-22T03:45:55.091Z,61.10
2019-05-22T03:48:26.560Z,61.20
2019-05-22T03:50:59.870Z,61.30
2019-05-22T03:53:30.588Z,61.50
2019-05-22T03:56:00.828Z,61.60
2019-05-22T03:58:30.872Z,61.90
2019-05-22T04:01:03.422Z,61.90
2019-05-22T04:03:35.195Z,61.80
2019-05-22T04:06:06.460Z,61.90
2019-05-22T04:08:37.814Z,61.90
2019-05-22T04:11:10.436Z,61.90
2019-05-22T04:13:41.351Z,61.70
2019-05-22T04:16:21.410Z,61.70
2019-05-22T04:18:51.141Z,61.50
2019-05-22T04:21:21.023Z,61.70
2019-05-22T04:23:50.695Z,61.40
2019-05-22T04:26:20.842Z,61.40
2019-05-22T04:28:53.004Z,61.30
2019-05-22T04:31:32.045Z,61.40
2019-05-22T04:34:01.754Z,61.30
2019-05-22T04:36:31.874Z,61.50
2019-05-22T04:39:05.587Z,61.00
2019-05-22T04:41:36.241Z,61.30
2019-05-22T04:44:06.829Z,61.40
2019-05-22T04:46:36.553Z,61.50
2019-05-22T04:49:06.569Z,61.40
2019-05-22T04:51:36.227Z,62.40
2019-05-22T04:54:05.837Z,61.70
2019-05-22T04:56:35.850Z,61.60
2019-05-22T04:59:05.983Z,61.40
2019-05-22T05:01:36.266Z,61.30
2019-05-22T05:04:06.812Z,61.20
2019-05-22T05:06:37.787Z,61.20
2019-05-22T05:09:09.783Z,61.20
2019-05-22T05:11:39.818Z,61.10
2019-05-22T05:14:09.453Z,61.20
2019-05-22T05:16:39.100Z,61.20
2019-05-22T05:19:08.949Z,61.10
2019-05-22T05:21:39.112Z,61.10
2019-05-22T05:24:08.816Z,61.10
2019-05-22T05:26:39.167Z,61.00
2019-05-22T05:29:12.462Z,60.90
2019-05-22T05:31:42.304Z,60.90
2019-05-22T05:34:37.619Z,60.80
2019-05-22T05:37:08.065Z,60.70
2019-05-22T05:39:42.118Z,60.60
2019-05-22T05:42:11.874Z,60.30
2019-05-22T05:44:41.818Z,60.40
2019-05-22T05:47:11.635Z,60.50
2019-05-22T05:49:41.890Z,60.60
2019-05-22T05:52:13.384Z,60.70
2019-05-22T05:54:44.489Z,60.80
2019-05-22T05:57:38.317Z,60.20
2019-05-22T06:00:12.501Z,60.00
2019-05-22T06:02:55.539Z,60.10
2019-05-22T06:05:13.747Z,60.00
2019-05-22T06:07:43.451Z,59.90
2019-05-22T06:10:31.459Z,60.10
2019-05-22T06:13:02.378Z,60.20
2019-05-22T06:15:47.460Z,60.10
2019-05-22T06:18:34.924Z,61.20
2019-05-22T06:21:06.193Z,60.10
2019-05-22T06:23:44.188Z,59.60
2019-05-22T06:26:23.123Z,59.90
2019-05-22T06:28:52.962Z,59.60
2019-05-22T06:31:42.904Z,59.40
2019-05-22T06:34:12.869Z,59.20
2019-05-22T06:36:42.941Z,58.80
2019-05-22T06:39:13.850Z,58.70
2019-05-22T06:41:44.047Z,58.50
2019-05-22T06:44:35.156Z,58.60
2019-05-22T06:47:08.479Z,58.90
2019-05-22T06:49:40.562Z,58.30
2019-05-22T06:52:11.137Z,58.00
2019-05-22T06:54:41.031Z,57.80
2019-05-22T06:57:16.029Z,57.40
2019-05-22T06:59:46.866Z,57.30
2019-05-22T07:02:17.952Z,57.50
2019-05-22T07:04:48.234Z,57.60
2019-05-22T07:07:18.479Z,57.50
2019-05-22T07:09:48.487Z,57.50
2019-05-22T07:12:19.853Z,57.20
2019-05-22T07:15:08.455Z,56.80
2019-05-22T07:17:39.896Z,56.50
2019-05-22T07:20:11.344Z,56.10
2019-05-22T07:22:43.101Z,55.70
2019-05-22T07:25:14.749Z,55.60
2019-05-22T07:27:45.330Z,55.40
2019-05-22T07:30:15.537Z,55.20
2019-05-22T07:32:45.412Z,55.00
2019-05-22T07:35:15.391Z,54.40
2019-05-22T07:37:47.415Z,54.20
2019-05-22T07:40:18.737Z,53.40
2019-05-22T07:42:50.721Z,53.30
2019-05-22T07:45:23.025Z,52.80
2019-05-22T07:47:53.814Z,52.20
2019-05-22T07:50:23.626Z,52.30
2019-05-22T07:52:53.547Z,51.90
2019-05-22T07:55:24.139Z,51.40
2019-05-22T07:58:09.770Z,51.50
2019-05-22T08:00:42.673Z,50.40
2019-05-22T08:03:12.551Z,49.50
2019-05-22T08:05:44.684Z,48.80
2019-05-22T08:08:18.720Z,48.50
2019-05-22T08:10:47.634Z,47.90
2019-05-22T08:13:17.209Z,47.30
2019-05-22T08:15:48.078Z,47.40
2019-05-22T08:18:18.299Z,46.70
2019-05-22T08:20:49.463Z,46.30
2019-05-22T08:23:19.877Z,46.40
2019-05-22T08:25:49.701Z,46.00
2019-05-22T08:28:20.958Z,46.30
2019-05-22T08:30:51.297Z,44.90
2019-05-22T08:33:22.411Z,44.70
2019-05-22T08:35:52.828Z,44.30
2019-05-22T08:38:29.120Z,44.30
2019-05-22T08:41:01.271Z,43.80
2019-05-22T08:43:49.585Z,44.20
2019-05-22T08:46:06.667Z,43.60
2019-05-22T08:48:39.187Z,43.20
2019-05-22T08:51:11.392Z,42.90
2019-05-22T08:53:47.662Z,41.90
2019-05-22T08:56:14.232Z,42.00
2019-05-22T08:58:44.879Z,42.60
2019-05-22T09:01:15.811Z,41.80
2019-05-22T09:03:45.741Z,41.60
2019-05-22T09:06:15.339Z,41.70
2019-05-22T09:08:45.152Z,41.60
2019-05-22T09:11:14.886Z,41.10
2019-05-22T09:13:44.614Z,41.30
2019-05-22T09:16:15.044Z,41.30
2019-05-22T09:18:44.780Z,40.30
2019-05-22T09:21:15.544Z,39.10
2019-05-22T09:23:46.381Z,39.20
2019-05-22T09:26:17.310Z,38.50
2019-05-22T09:28:47.078Z,38.80
2019-05-22T09:31:17.662Z,38.80
2019-05-22T09:33:48.986Z,38.80
2019-05-22T09:36:18.787Z,38.90
2019-05-22T09:38:52.175Z,38.80
2019-05-22T09:41:20.637Z,37.70
2019-05-22T09:43:50.232Z,37.30
2019-05-22T09:46:19.961Z,37.30
2019-05-22T09:48:49.620Z,37.20
2019-05-22T09:51:20.277Z,36.70
2019-05-22T09:53:51.509Z,36.40
2019-05-22T09:56:21.557Z,35.80
2019-05-22T09:58:51.579Z,36.00
2019-05-22T10:01:21.469Z,35.40
2019-05-22T10:03:51.112Z,34.70
2019-05-22T10:06:21.868Z,34.80
2019-05-22T10:08:51.604Z,34.20
2019-05-22T10:11:21.336Z,33.40
2019-05-22T10:13:51.550Z,33.10
2019-05-22T10:16:21.471Z,33.10
2019-05-22T10:18:53.371Z,33.30
2019-05-22T10:21:22.838Z,33.80
2019-05-22T10:23:53.082Z,32.90
2019-05-22T10:26:23.130Z,31.80
2019-05-22T10:28:52.983Z,31.60
2019-05-22T10:31:22.916Z,31.10
2019-05-22T10:33:52.676Z,31.10
2019-05-22T10:36:22.787Z,30.60
2019-05-22T10:38:52.532Z,30.90
2019-05-22T10:41:22.569Z,30.20
2019-05-22T10:43:52.684Z,30.30
2019-05-22T10:46:22.548Z,30.40
2019-05-22T10:48:52.558Z,30.40
2019-05-22T10:51:22.429Z,30.60
2019-05-22T10:53:52.366Z,30.60
2019-05-22T10:56:22.314Z,30.60
2019-05-22T10:58:52.069Z,30.00
2019-05-22T11:01:23.260Z,29.80
2019-05-22T11:03:53.584Z,29.40
2019-05-22T11:06:23.860Z,29.20
2019-05-22T11:08:53.497Z,29.10
2019-05-22T11:11:23.521Z,28.70
2019-05-22T11:14:01.457Z,28.10
2019-05-22T11:16:25.125Z,28.70
2019-05-22T11:18:54.983Z,28.50
2019-05-22T11:21:25.291Z,27.80
2019-05-22T11:23:55.986Z,27.40
2019-05-22T11:26:26.239Z,27.40
2019-05-22T11:28:56.101Z,27.30
2019-05-22T11:31:26.484Z,27.60
2019-05-22T11:33:56.347Z,27.00
2019-05-22T11:36:26.573Z,27.10
2019-05-22T11:38:56.271Z,26.70
2019-05-22T11:41:26.490Z,27.10
2019-05-22T11:43:56.405Z,26.30
2019-05-22T11:46:26.053Z,25.90
2019-05-22T11:48:55.737Z,25.70
2019-05-22T11:51:25.575Z,25.50
2019-05-22T11:54:08.621Z,25.90
2019-05-22T11:56:27.699Z,25.80
2019-05-22T11:58:57.350Z,26.20
2019-05-22T12:01:27.112Z,25.50
2019-05-22T12:03:58.385Z,24.60
2019-05-22T12:06:29.713Z,24.50
2019-05-22T12:08:59.929Z,24.20
2019-05-22T12:11:29.871Z,24.10
2019-05-22T12:13:59.652Z,23.60
2019-05-22T12:16:29.608Z,23.30
2019-05-22T12:18:59.341Z,23.50
2019-05-22T12:21:29.033Z,23.40
2019-05-22T12:23:59.099Z,23.50
2019-05-22T12:26:29.258Z,23.10
2019-05-22T12:28:59.914Z,23.00
2019-05-22T12:31:29.783Z,23.30
2019-05-22T12:34:00.738Z,23.40
2019-05-22T12:36:30.644Z,22.90
2019-05-22T12:39:01.074Z,23.10
2019-05-22T12:41:32.508Z,23.30
2019-05-22T12:44:03.161Z,23.70
2019-05-22T12:46:34.376Z,23.20
2019-05-22T12:49:08.390Z,22.70
2019-05-22T12:51:35.777Z,22.30
2019-05-22T12:54:07.140Z,22.60
2019-05-22T12:56:37.480Z,22.60
2019-05-22T12:59:08.548Z,22.10
2019-05-22T13:01:39.775Z,22.10
2019-05-22T13:04:09.842Z,22.40
2019-05-22T13:06:39.497Z,22.40
2019-05-22T13:09:10.788Z,22.20
2019-05-22T13:11:41.697Z,21.60
2019-05-22T13:14:11.638Z,20.90
2019-05-22T13:16:47.272Z,21.40
2019-05-22T13:19:14.207Z,21.10
2019-05-22T13:21:46.237Z,21.00
2019-05-22T13:24:18.864Z,20.50
2019-05-22T13:26:51.017Z,20.30
2019-05-22T13:29:22.556Z,20.00
2019-05-22T13:31:55.204Z,19.90
2019-05-22T13:34:28.311Z,20.00
2019-05-22T13:36:58.066Z,20.00
2019-05-22T13:39:27.825Z,20.10
2019-05-22T13:41:57.413Z,20.20
2019-05-22T13:44:28.543Z,19.70
2019-05-22T13:46:58.810Z,19.30
2019-05-22T13:49:30.161Z,18.80
2019-05-22T13:52:00.774Z,19.40
2019-05-22T13:54:31.323Z,19.70
2019-05-22T13:57:01.169Z,19.50
2019-05-22T13:59:31.556Z,19.70
2019-05-22T14:02:01.333Z,19.30
2019-05-22T14:04:31.083Z,19.40
2019-05-22T14:07:01.019Z,19.00
2019-05-22T14:09:31.653Z,19.00
2019-05-22T14:12:01.598Z,18.80
2019-05-22T14:14:32.229Z,18.40
2019-05-22T14:17:01.948Z,18.40
2019-05-22T14:19:32.057Z,18.40
2019-05-22T14:22:01.726Z,18.00
2019-05-22T14:24:31.456Z,17.90
2019-05-22T14:27:01.208Z,17.70
2019-05-22T14:29:32.091Z,17.80
2019-05-22T14:32:02.639Z,18.20
2019-05-22T14:34:32.303Z,18.20
2019-05-22T14:37:02.275Z,18.40
2019-05-22T14:39:32.645Z,18.30
2019-05-22T14:42:02.902Z,17.90
2019-05-22T14:44:34.055Z,18.00
2019-05-22T14:47:13.465Z,18.10
2019-05-22T14:49:35.810Z,18.10
2019-05-22T14:52:06.575Z,18.20
2019-05-22T14:54:36.522Z,18.40
2019-05-22T14:57:06.167Z,18.50
2019-05-22T14:59:36.026Z,18.20
2019-05-22T15:02:06.193Z,17.80
2019-05-22T15:04:36.162Z,17.90
2019-05-22T15:07:07.793Z,17.50
2019-05-22T15:09:37.378Z,17.10
2019-05-22T15:12:06.970Z,17.20
2019-05-22T15:14:36.732Z,17.10
2019-05-22T15:17:07.012Z,17.10
2019-05-22T15:19:37.721Z,17.40
2019-05-22T15:22:09.064Z,17.00
2019-05-22T15:24:39.724Z,17.40
2019-05-22T15:27:09.366Z,17.30
2019-05-22T15:29:39.050Z,17.30
2019-05-22T15:32:09.319Z,17.20
2019-05-22T15:34:39.749Z,17.40
2019-05-22T15:37:11.275Z,17.60
2019-05-22T15:39:41.510Z,17.20
2019-05-22T15:42:14.367Z,17.70
2019-05-22T15:44:44.385Z,17.30
2019-05-22T15:47:14.409Z,17.10
2019-05-22T15:49:45.288Z,17.50
2019-05-22T15:52:16.204Z,18.00
2019-05-22T15:54:47.418Z,17.90
2019-05-22T15:57:19.769Z,18.00
2019-05-22T15:59:50.689Z,18.10
2019-05-22T16:02:22.114Z,18.20
2019-05-22T16:04:52.717Z,18.00
2019-05-22T16:07:23.886Z,18.30
2019-05-22T16:09:54.068Z,18.40
2019-05-22T16:12:24.815Z,18.30
2019-05-22T16:14:54.463Z,18.40
2019-05-22T16:17:24.067Z,18.70
2019-05-22T16:19:54.410Z,18.80
2019-05-22T16:22:24.081Z,19.10
2019-05-22T16:24:53.686Z,19.00
2019-05-22T16:27:25.421Z,19.00
2019-05-22T16:29:55.485Z,18.80
2019-05-22T16:32:28.041Z,18.70
2019-05-22T16:34:57.794Z,18.70
2019-05-22T16:37:27.408Z,19.10
2019-05-22T16:39:57.342Z,18.70
2019-05-22T16:42:27.294Z,18.60
2019-05-22T16:44:57.755Z,18.40
2019-05-22T16:47:27.522Z,18.90
2019-05-22T16:49:58.545Z,18.80
2019-05-22T16:52:29.032Z,18.80
2019-05-22T16:54:59.790Z,18.70
2019-05-22T16:57:31.619Z,18.60
2019-05-22T17:00:02.463Z,18.50
2019-05-22T17:02:35.479Z,18.70
2019-05-22T17:05:07.643Z,18.40
2019-05-22T17:07:38.959Z,18.60
2019-05-22T17:10:10.043Z,18.50
2019-05-22T17:12:42.160Z,18.90
2019-05-22T17:15:15.275Z,19.00
2019-05-22T17:17:45.732Z,18.90
2019-05-22T17:20:19.006Z,19.00
2019-05-22T17:22:48.895Z,18.90
2019-05-22T17:25:20.456Z,19.00
2019-05-22T17:27:50.759Z,19.00
2019-05-22T17:30:24.581Z,19.10
2019-05-22T17:32:54.907Z,19.20
2019-05-22T17:35:26.337Z,19.50
2019-05-22T17:37:57.360Z,19.70
2019-05-22T17:40:27.386Z,19.80
2019-05-22T17:42:57.284Z,20.10
2019-05-22T17:45:28.265Z,20.40
2019-05-22T17:47:58.457Z,20.60
2019-05-22T17:50:29.113Z,20.80
2019-05-22T17:52:59.669Z,21.10
2019-05-22T17:55:30.225Z,21.60
2019-05-22T17:58:00.060Z,21.40
2019-05-22T18:00:31.618Z,22.30
2019-05-22T18:03:02.894Z,22.90
2019-05-22T18:05:33.356Z,23.40
2019-05-22T18:08:03.611Z,23.50
2019-05-22T18:10:40.325Z,24.10
2019-05-22T18:13:10.802Z,24.00
2019-05-22T18:15:40.923Z,23.90
2019-05-22T18:18:11.230Z,24.10
2019-05-22T18:20:43.598Z,24.30
2019-05-22T18:23:12.427Z,24.50
2019-05-22T18:25:43.774Z,24.70
2019-05-22T18:28:14.335Z,24.80
2019-05-22T18:30:44.696Z,24.90
2019-05-22T18:33:14.528Z,24.80
2019-05-22T18:35:44.834Z,25.00
2019-05-22T18:38:14.612Z,25.30
2019-05-22T18:40:44.474Z,25.40
2019-05-22T18:43:18.718Z,25.60
2019-05-22T18:45:46.353Z,25.90
2019-05-22T18:48:16.101Z,26.20
2019-05-22T18:50:46.429Z,26.40
2019-05-22T18:53:16.879Z,26.60
2019-05-22T18:55:46.620Z,26.80
2019-05-22T18:58:28.441Z,27.40
2019-05-22T19:00:58.128Z,27.00
2019-05-22T19:03:27.913Z,27.00
2019-05-22T19:05:57.829Z,27.20
2019-05-22T19:08:27.552Z,27.20
2019-05-22T19:10:57.288Z,27.30
2019-05-22T19:13:26.956Z,27.40
2019-05-22T19:15:56.737Z,27.60
2019-05-22T19:18:26.439Z,27.60
2019-05-22T19:20:56.389Z,27.60
2019-05-22T19:23:26.266Z,27.50
2019-05-22T19:25:56.134Z,27.50
2019-05-22T19:28:42.253Z,27.40
2019-05-22T19:30:58.502Z,28.40
2019-05-22T19:33:29.426Z,28.00
2019-05-22T19:35:59.157Z,28.00
2019-05-22T19:38:28.887Z,28.20
2019-05-22T19:40:59.323Z,28.30
2019-05-22T19:43:29.535Z,29.10
2019-05-22T19:45:59.476Z,29.30
2019-05-22T19:48:29.314Z,28.90
2019-05-22T19:51:02.010Z,29.10
2019-05-22T19:53:31.444Z,29.30
2019-05-22T19:56:02.140Z,29.40
2019-05-22T19:58:32.062Z,29.60
2019-05-22T20:01:01.972Z,29.80
2019-05-22T20:03:31.729Z,30.00
2019-05-22T20:06:02.342Z,30.20
2019-05-22T20:08:36.107Z,30.40
2019-05-22T20:11:04.851Z,30.70
2019-05-22T20:13:35.305Z,30.70
2019-05-22T20:16:05.233Z,30.90
2019-05-22T20:18:34.973Z,31.10
2019-05-22T20:21:05.220Z,31.30
2019-05-22T20:23:36.962Z,31.70
2019-05-22T20:26:08.109Z,31.80
2019-05-22T20:28:38.954Z,32.10
2019-05-22T20:31:09.668Z,32.20
2019-05-22T20:33:39.603Z,32.50
2019-05-22T20:36:10.412Z,32.60
2019-05-22T20:38:40.311Z,32.90
2019-05-22T20:41:09.904Z,33.20
2019-05-22T20:43:39.765Z,34.10
2019-05-22T20:46:09.704Z,33.60
2019-05-22T20:48:40.662Z,33.70
2019-05-22T20:51:12.515Z,33.80
2019-05-22T20:53:53.716Z,34.10
2019-05-22T20:56:14.693Z,34.60
2019-05-22T20:58:44.953Z,34.70
2019-05-22T21:01:16.387Z,34.90
2019-05-22T21:03:46.423Z,35.10
2019-05-22T21:06:17.156Z,34.90
2019-05-22T21:08:48.027Z,34.80
2019-05-22T21:11:20.656Z,34.70
2019-05-22T21:13:50.676Z,35.10
2019-05-22T21:16:21.053Z,36.10
2019-05-22T21:18:52.438Z,35.70
2019-05-22T21:21:24.046Z,35.90
2019-05-22T21:24:09.449Z,36.00
2019-05-22T21:26:28.800Z,36.30
2019-05-22T21:28:58.898Z,36.40
2019-05-22T21:31:28.892Z,36.60
2019-05-22T21:33:58.862Z,37.40
2019-05-22T21:36:29.084Z,36.90
2019-05-22T21:38:59.016Z,37.00
2019-05-22T21:41:28.886Z,37.00
2019-05-22T21:43:59.340Z,37.20
2019-05-22T21:46:30.009Z,37.30
2019-05-22T21:49:00.056Z,37.20
2019-05-22T21:51:29.691Z,36.90
2019-05-22T21:53:59.353Z,36.80
2019-05-22T21:56:29.990Z,36.60
2019-05-22T21:59:01.020Z,36.60
2019-05-22T22:01:32.836Z,36.50
2019-05-22T22:04:04.454Z,36.40
2019-05-22T22:06:34.500Z,36.50
2019-05-22T22:09:05.943Z,36.40
2019-05-22T22:11:36.446Z,36.40
2019-05-22T22:14:06.914Z,36.40
2019-05-22T22:16:36.550Z,36.50
2019-05-22T22:19:07.572Z,36.50
2019-05-22T22:21:38.729Z,36.50
2019-05-22T22:24:09.542Z,36.50
2019-05-22T22:26:39.297Z,36.50
2019-05-22T22:29:09.518Z,36.40
2019-05-22T22:31:39.786Z,36.40
2019-05-22T22:34:18.741Z,36.60
2019-05-22T22:36:49.304Z,36.50
2019-05-22T22:39:21.484Z,37.20
2019-05-22T22:41:52.223Z,37.10
2019-05-22T22:44:22.688Z,37.30
2019-05-22T22:46:57.210Z,37.50
2019-05-22T22:49:27.938Z,37.70
2019-05-22T22:51:59.093Z,37.90
2019-05-22T22:54:28.773Z,38.10
2019-05-22T22:57:00.019Z,38.30
2019-05-22T22:59:29.724Z,38.50
2019-05-22T23:02:01.645Z,38.70
2019-05-22T23:04:32.030Z,38.70
2019-05-22T23:07:05.769Z,38.70
2019-05-22T23:09:38.006Z,38.80
2019-05-22T23:12:09.580Z,39.00
2019-05-22T23:14:42.596Z,39.20
2019-05-22T23:17:13.630Z,39.70
2019-05-22T23:19:44.497Z,40.50
2019-05-22T23:22:19.650Z,40.90
2019-05-22T23:24:49.504Z,41.70
2019-05-22T23:27:20.914Z,42.40
2019-05-22T23:29:51.064Z,43.00
2019-05-22T23:32:21.367Z,43.60
2019-05-22T23:34:51.118Z,43.60
2019-05-22T23:37:22.258Z,44.00
2019-05-22T23:39:53.385Z,44.80
2019-05-22T23:42:27.086Z,45.40
2019-05-22T23:44:58.131Z,45.80
2019-05-22T23:47:30.491Z,46.20
2019-05-22T23:50:00.703Z,46.50
2019-05-22T23:52:31.232Z,46.90
2019-05-22T23:55:02.666Z,47.50
2019-05-22T23:57:32.702Z,47.70
